Time;durP1;ratioP1;P1;durP2;ratioP2;P2;SDS_P1;SDS_P2;PMS_P1;PMS_P2;Temp;Humidity;BMP_temperature;BMP_pressure;BME280_temperature;BME280_humidity;BME280_pressure;Samples;Min_cycle;Max_cycle;Signal;HPM_P1;HPM_P2
2022/12/30 00:00:20;;;;;;;14.75;3.53;;;8.20;99.90;;;;;;5015017;28;20038;-72
2022/12/30 00:02:45;;;;;;;21.98;3.80;;;8.20;99.90;;;;;;5011973;28;20480;-72
2022/12/30 00:05:11;;;;;;;20.73;3.65;;;8.10;99.90;;;;;;5012546;28;20033;-71
2022/12/30 00:07:36;;;;;;;20.17;3.47;;;8.10;99.90;;;;;;5015657;28;20025;-72
2022/12/30 00:10:03;;;;;;;23.70;3.97;;;8.10;99.90;;;;;;5012743;28;20093;-71
2022/12/30 00:35:18;;;;;;;17.55;3.45;;;8.10;99.90;;;;;;5012110;28;20115;-71
2022/12/30 00:37:44;;;;;;;23.80;3.78;;;8.10;99.90;;;;;;5006658;28;20034;-71
2022/12/30 00:40:10;;;;;;;17.10;3.53;;;8.00;99.90;;;;;;5010282;28;20037;-72
2022/12/30 00:45:23;;;;;;;26.00;3.63;;;7.80;99.90;;;;;;5011989;28;20622;-71
2022/12/30 00:47:49;;;;;;;16.30;3.53;;;7.80;99.90;;;;;;5010256;28;20018;-71
2022/12/30 00:58:27;;;;;;;18.05;5.40;;;7.80;99.90;;;;;;5006983;28;20045;-71
2022/12/30 01:00:54;;;;;;;24.92;3.58;;;7.70;99.90;;;;;;5013054;28;20029;-71
2022/12/30 01:03:19;;;;;;;22.27;3.80;;;7.70;99.90;;;;;;5006710;28;20033;-71
2022/12/30 01:05:45;;;;;;;18.92;3.72;;;7.70;99.90;;;;;;5007995;28;20036;-72
2022/12/30 01:08:11;;;;;;;18.67;3.85;;;7.70;99.90;;;;;;5013198;28;20025;-72
2022/12/30 01:10:38;;;;;;;23.02;3.55;;;7.70;99.90;;;;;;5009530;28;20029;-71
2022/12/30 01:13:04;;;;;;;21.88;3.40;;;7.70;99.90;;;;;;5011571;28;21162;-71
2022/12/30 01:15:29;;;;;;;20.70;4.05;;;7.70;99.90;;;;;;5010301;28;20359;-71
2022/12/30 01:17:55;;;;;;;19.63;3.55;;;7.60;99.90;;;;;;4996109;28;20423;-71
2022/12/30 01:20:21;;;;;;;17.80;3.38;;;7.60;99.90;;;;;;4994142;28;20034;-71
2022/12/30 01:22:46;;;;;;;18.38;3.33;;;7.60;99.90;;;;;;5015175;28;20029;-71
2022/12/30 01:25:12;;;;;;;19.33;3.15;;;7.60;99.90;;;;;;5008724;28;20396;-71
2022/12/30 01:27:37;;;;;;;12.77;3.55;;;7.60;99.90;;;;;;4997058;28;20024;-71
2022/12/30 01:30:03;;;;;;;24.30;3.65;;;7.60;99.90;;;;;;5018180;28;20038;-71
2022/12/30 01:32:30;;;;;;;18.23;3.28;;;7.60;99.90;;;;;;5009065;28;20037;-71
2022/12/30 01:34:56;;;;;;;16.67;3.80;;;7.50;99.90;;;;;;5014258;28;20013;-71
2022/12/30 01:37:23;;;;;;;25.80;3.17;;;7.60;99.90;;;;;;5017266;28;20486;-72
2022/12/30 01:39:49;;;;;;;22.00;3.20;;;7.50;99.90;;;;;;5012904;28;20168;-71
2022/12/30 01:42:25;;;;;;;17.25;3.65;;;7.50;99.90;;;;;;4999623;28;20116;-71
2022/12/30 01:45:18;;;;;;;11.07;3.30;;;7.60;99.90;;;;;;5012853;28;20033;-71
2022/12/30 01:47:48;;;;;;;14.25;2.47;;;7.50;99.90;;;;;;5016233;28;20109;-71
2022/12/30 01:50:21;;;;;;;20.90;3.85;;;7.50;99.90;;;;;;5014426;28;20034;-71
2022/12/30 01:52:49;;;;;;;21.85;3.92;;;7.40;99.90;;;;;;4991533;28;20064;-72
2022/12/30 01:55:21;;;;;;;15.80;3.85;;;7.50;99.90;;;;;;4993950;28;20080;-71
2022/12/30 01:57:50;;;;;;;24.77;4.10;;;7.40;99.90;;;;;;4992985;28;20101;-71
2022/12/30 02:00:16;;;;;;;20.98;3.58;;;7.40;99.90;;;;;;4990311;28;20447;-71
2022/12/30 02:02:42;;;;;;;22.38;3.78;;;7.50;99.90;;;;;;5014819;28;20034;-71
2022/12/30 02:05:10;;;;;;;25.42;4.25;;;7.50;99.90;;;;;;5007505;28;20037;-71
2022/12/30 02:07:45;;;;;;;20.15;3.25;;;7.40;99.90;;;;;;5015621;28;20105;-71
2022/12/30 02:10:11;;;;;;;15.85;3.55;;;7.50;99.90;;;;;;5014160;28;20394;-71
2022/12/30 02:12:37;;;;;;;16.70;3.40;;;7.40;99.90;;;;;;4992754;28;20029;-71
2022/12/30 02:15:04;;;;;;;23.45;3.28;;;7.40;99.90;;;;;;5019360;28;20045;-71
2022/12/30 02:17:58;;;;;;;14.23;3.60;;;7.40;99.90;;;;;;5016018;28;20137;-71
2022/12/30 02:20:55;;;;;;;29.10;4.20;;;7.30;99.90;;;;;;5013004;28;20665;-71
2022/12/30 02:23:43;;;;;;;22.25;4.00;;;7.30;99.90;;;;;;4978461;28;20038;-71
2022/12/30 02:26:33;;;;;;;22.75;3.95;;;7.40;99.90;;;;;;4998444;28;20137;-71
2022/12/30 02:29:19;;;;;;;16.88;3.70;;;7.30;99.90;;;;;;5018776;28;20021;-72
2022/12/30 02:32:03;;;;;;;18.02;3.28;;;7.30;99.90;;;;;;5010999;28;20034;-71
2022/12/30 02:34:43;;;;;;;19.63;3.00;;;7.30;99.90;;;;;;5009863;28;20796;-71
2022/12/30 02:37:27;;;;;;;20.85;4.32;;;7.20;99.90;;;;;;5019350;28;20112;-71
2022/12/30 02:39:57;;;;;;;16.77;2.63;;;7.20;99.90;;;;;;5012234;28;20555;-71
2022/12/30 02:45:26;;;;;;;23.52;3.75;;;7.20;99.90;;;;;;5016105;28;20045;-71
2022/12/30 02:48:01;;;;;;;;;;;7.10;99.90;;;;;;5008056;28;20022;-71
2022/12/30 02:53:18;;;;;;;26.08;3.35;;;7.10;99.90;;;;;;5019563;28;20487;-71
2022/12/30 02:55:44;;;;;;;14.73;2.90;;;7.10;99.90;;;;;;5014454;28;20032;-71
2022/12/30 02:58:11;;;;;;;25.40;4.00;;;7.00;99.90;;;;;;5012744;28;20018;-71
2022/12/30 03:06:24;;;;;;;22.80;4.00;;;7.00;99.90;;;;;;5009372;28;20061;-71
2022/12/30 03:09:05;;;;;;;28.73;4.05;;;7.00;99.90;;;;;;4994567;28;20045;-71
2022/12/30 03:11:51;;;;;;;16.95;3.88;;;7.00;99.90;;;;;;5008367;28;20524;-71
2022/12/30 03:14:30;;;;;;;21.38;3.95;;;7.00;99.90;;;;;;4997127;28;20453;-71
2022/12/30 03:17:06;;;;;;;24.05;4.07;;;7.00;99.90;;;;;;4989542;28;20069;-70
2022/12/30 03:19:38;;;;;;;29.30;3.80;;;6.90;99.90;;;;;;5014314;28;20045;-71
2022/12/30 03:22:07;;;;;;;21.40;3.53;;;6.90;99.90;;;;;;5010698;28;20034;-72
2022/12/30 03:27:22;;;;;;;18.42;3.58;;;6.90;99.90;;;;;;5008451;28;20029;-71
2022/12/30 03:29:55;;;;;;;18.80;3.47;;;7.00;99.90;;;;;;5010486;28;20469;-72
2022/12/30 03:32:21;;;;;;;19.15;3.60;;;6.90;99.90;;;;;;5006960;28;20037;-72
2022/12/30 03:34:48;;;;;;;28.52;4.95;;;6.90;99.90;;;;;;5012606;28;20489;-72
2022/12/30 03:37:14;;;;;;;25.73;4.00;;;6.90;99.90;;;;;;5009016;28;20025;-72
2022/12/30 03:39:45;;;;;;;23.70;4.18;;;6.90;99.90;;;;;;4991764;28;20188;-72
2022/12/30 03:42:12;;;;;;;14.68;3.35;;;7.00;99.90;;;;;;5014934;28;20054;-72
2022/12/30 03:44:42;;;;;;;16.13;3.13;;;7.00;99.90;;;;;;5008262;28;20034;-71
2022/12/30 03:47:13;;;;;;;16.50;3.95;;;7.00;99.90;;;;;;5012887;28;20342;-72
2022/12/30 03:49:41;;;;;;;22.90;4.47;;;7.00;99.90;;;;;;5012860;28;20041;-72
2022/12/30 03:52:06;;;;;;;17.60;3.72;;;7.00;99.90;;;;;;5006246;28;20033;-72
2022/12/30 03:54:32;;;;;;;17.58;3.65;;;6.90;99.90;;;;;;5014484;28;20056;-72
2022/12/30 03:56:57;;;;;;;14.40;3.55;;;6.90;99.90;;;;;;5011866;28;20034;-72
2022/12/30 03:59:23;;;;;;;20.08;3.70;;;6.90;99.90;;;;;;5016776;28;20689;-72
2022/12/30 04:01:49;;;;;;;22.55;4.50;;;6.80;99.90;;;;;;5009152;28;20022;-72
2022/12/30 04:04:14;;;;;;;23.95;12.63;;;6.80;99.90;;;;;;5008616;28;20101;-72
2022/12/30 04:06:40;;;;;;;17.10;3.90;;;6.80;99.90;;;;;;4995694;28;20036;-72
2022/12/30 04:09:05;;;;;;;14.23;3.83;;;6.80;99.90;;;;;;5014117;28;20477;-72
2022/12/30 04:11:31;;;;;;;22.20;3.75;;;6.90;99.90;;;;;;5011828;28;20504;-72
2022/12/30 04:13:56;;;;;;;21.10;3.42;;;6.80;99.90;;;;;;5015290;28;20025;-72
2022/12/30 04:16:22;;;;;;;17.48;3.65;;;6.90;99.90;;;;;;5014192;28;20025;-72
2022/12/30 04:18:48;;;;;;;18.75;3.47;;;6.80;99.90;;;;;;5011965;28;20030;-72
2022/12/30 04:21:13;;;;;;;20.50;3.00;;;6.80;99.90;;;;;;5013959;28;20033;-72
2022/12/30 04:23:39;;;;;;;21.63;3.42;;;6.80;99.90;;;;;;5012457;28;20032;-72
2022/12/30 04:26:05;;;;;;;23.70;4.25;;;6.80;99.90;;;;;;5013247;28;20347;-72
2022/12/30 04:28:30;;;;;;;17.15;3.08;;;6.70;99.90;;;;;;5002043;28;20017;-72
2022/12/30 04:30:56;;;;;;;20.08;2.95;;;6.80;99.90;;;;;;5002210;28;20043;-72
2022/12/30 04:33:21;;;;;;;20.08;3.67;;;6.80;99.90;;;;;;5011695;28;20022;-72
2022/12/30 04:35:47;;;;;;;19.15;3.83;;;6.90;99.90;;;;;;5004891;28;20153;-72
2022/12/30 04:38:12;;;;;;;16.80;3.35;;;6.80;99.90;;;;;;4996630;28;20022;-72
2022/12/30 04:40:38;;;;;;;18.75;3.42;;;6.80;99.90;;;;;;5002816;28;20048;-72
2022/12/30 04:43:04;;;;;;;23.30;3.45;;;6.80;99.90;;;;;;5009688;28;20362;-71
2022/12/30 04:45:29;;;;;;;17.30;3.30;;;6.80;99.90;;;;;;5012846;28;20439;-72
2022/12/30 04:47:55;;;;;;;18.25;3.28;;;6.80;99.90;;;;;;5010013;28;20022;-72
2022/12/30 04:50:21;;;;;;;18.25;3.47;;;6.80;99.90;;;;;;5009740;28;20466;-72
2022/12/30 04:52:46;;;;;;;18.65;3.13;;;6.80;99.90;;;;;;5007690;28;20356;-72
2022/12/30 04:55:12;;;;;;;17.08;3.38;;;6.80;99.90;;;;;;5008014;28;20382;-72
2022/12/30 04:57:37;;;;;;;23.60;3.50;;;6.80;99.90;;;;;;4995189;28;20033;-72
2022/12/30 05:00:05;;;;;;;21.58;3.53;;;6.80;99.90;;;;;;5005504;28;20034;-72
2022/12/30 05:02:31;;;;;;;22.40;3.75;;;6.80;99.90;;;;;;5005393;28;20097;-72
2022/12/30 05:04:56;;;;;;;25.15;4.50;;;6.70;99.90;;;;;;5005948;28;20473;-72
2022/12/30 05:07:22;;;;;;;18.23;3.65;;;6.80;99.90;;;;;;4984282;28;20042;-72
2022/12/30 05:09:48;;;;;;;30.50;4.10;;;6.80;99.90;;;;;;5001360;28;20022;-72
2022/12/30 05:12:14;;;;;;;33.78;3.60;;;6.70;99.90;;;;;;5001082;28;20033;-72
2022/12/30 05:14:40;;;;;;;19.98;3.40;;;6.70;99.90;;;;;;4990523;28;20041;-72
2022/12/30 05:17:05;;;;;;;18.55;3.75;;;6.70;99.90;;;;;;4995807;28;20413;-72
2022/12/30 05:19:31;;;;;;;24.25;3.75;;;6.70;99.90;;;;;;5002274;28;20485;-71
2022/12/30 05:21:56;;;;;;;16.10;3.45;;;6.70;99.90;;;;;;5002940;28;20034;-72
2022/12/30 05:27:20;;;;;;;24.33;3.65;;;6.70;99.90;;;;;;4974621;28;20121;-72
2022/12/30 05:29:45;;;;;;;21.00;3.25;;;6.60;99.90;;;;;;5010157;28;20115;-72
2022/12/30 05:32:11;;;;;;;19.10;3.55;;;6.60;99.90;;;;;;5008210;28;20410;-72
2022/12/30 05:34:36;;;;;;;25.60;3.75;;;6.60;99.90;;;;;;5002107;28;20026;-72
2022/12/30 05:37:02;;;;;;;18.27;4.68;;;6.60;99.90;;;;;;5007070;28;20545;-71
2022/12/30 05:39:27;;;;;;;15.77;3.83;;;6.60;99.90;;;;;;5009957;28;20053;-72
2022/12/30 05:41:53;;;;;;;22.55;4.15;;;6.60;99.90;;;;;;4986087;28;20026;-72
2022/12/30 05:44:19;;;;;;;21.45;3.67;;;6.60;99.90;;;;;;5002520;28;20114;-72
2022/12/30 05:46:44;;;;;;;20.25;4.13;;;6.60;99.90;;;;;;4983469;28;20380;-72
2022/12/30 05:49:10;;;;;;;21.23;3.67;;;6.60;99.90;;;;;;5002115;28;20034;-72
2022/12/30 05:51:36;;;;;;;21.33;4.45;;;6.60;99.90;;;;;;5006166;28;20463;-72
2022/12/30 05:54:01;;;;;;;19.42;3.60;;;6.60;99.90;;;;;;5009639;28;20100;-72
2022/12/30 05:56:27;;;;;;;14.18;3.75;;;6.60;99.90;;;;;;5006074;28;20025;-72
2022/12/30 05:58:52;;;;;;;17.20;3.45;;;6.60;99.90;;;;;;5002872;28;20045;-72
2022/12/30 06:01:18;;;;;;;14.23;3.08;;;6.60;99.90;;;;;;5008424;28;20049;-72
2022/12/30 06:03:44;;;;;;;14.63;4.00;;;6.60;99.90;;;;;;5008611;28;21124;-72
2022/12/30 06:06:10;;;;;;;27.60;5.10;;;6.60;99.90;;;;;;5003728;28;20026;-71
2022/12/30 06:08:36;;;;;;;24.23;4.05;;;6.60;99.90;;;;;;5007866;28;20021;-72
2022/12/30 06:11:02;;;;;;;15.40;4.28;;;6.60;99.90;;;;;;5021145;28;20414;-71
2022/12/30 06:13:28;;;;;;;16.85;4.10;;;6.60;99.90;;;;;;5004330;28;20102;-72
2022/12/30 06:15:53;;;;;;;14.90;3.80;;;6.60;99.90;;;;;;5007956;28;20053;-71
2022/12/30 06:18:19;;;;;;;19.77;4.60;;;6.70;99.90;;;;;;5000094;28;20022;-72
2022/12/30 06:20:46;;;;;;;23.30;4.75;;;6.60;99.90;;;;;;5009063;28;20718;-72
2022/12/30 06:23:12;;;;;;;15.30;3.47;;;6.70;99.90;;;;;;5000559;28;20036;-72
2022/12/30 06:25:37;;;;;;;20.45;3.78;;;6.60;99.90;;;;;;5005120;28;20034;-72
2022/12/30 06:28:03;;;;;;;20.58;4.57;;;6.60;99.90;;;;;;5007036;28;20026;-72
2022/12/30 06:30:29;;;;;;;16.05;3.92;;;6.70;99.90;;;;;;5004653;28;20022;-72
2022/12/30 06:32:56;;;;;;;20.58;3.88;;;6.60;99.90;;;;;;5008658;28;20034;-72
2022/12/30 06:35:21;;;;;;;15.63;3.50;;;6.60;99.90;;;;;;4991923;28;20026;-72
2022/12/30 06:37:47;;;;;;;9.85;3.13;;;6.70;99.90;;;;;;5003984;28;20493;-72
2022/12/30 06:40:13;;;;;;;17.35;3.45;;;6.70;99.90;;;;;;4994051;28;20081;-71
2022/12/30 06:42:38;;;;;;;23.70;3.80;;;6.80;99.90;;;;;;5010854;28;20030;-72
2022/12/30 06:45:05;;;;;;;18.38;4.10;;;6.70;99.90;;;;;;5003820;28;20146;-72
2022/12/30 06:47:31;;;;;;;9.50;3.10;;;6.70;99.90;;;;;;5015093;28;20053;-71
2022/12/30 06:49:57;;;;;;;18.30;3.25;;;6.70;99.90;;;;;;5004408;28;20060;-71
2022/12/30 06:52:23;;;;;;;12.70;3.80;;;6.80;99.90;;;;;;4991953;28;20023;-71
2022/12/30 06:54:49;;;;;;;16.35;3.33;;;6.60;99.90;;;;;;5007199;28;20034;-71
2022/12/30 06:57:14;;;;;;;19.00;3.47;;;6.70;99.90;;;;;;5005573;28;20030;-72
2022/12/30 06:59:40;;;;;;;14.98;3.50;;;6.70;99.90;;;;;;4990312;28;20053;-72
2022/12/30 07:02:05;;;;;;;8.50;2.83;;;6.70;99.90;;;;;;5006354;28;20022;-71
2022/12/30 07:04:31;;;;;;;14.40;3.50;;;6.70;99.90;;;;;;5004362;28;20061;-71
2022/12/30 07:06:57;;;;;;;14.32;3.33;;;6.70;99.90;;;;;;4987290;28;20022;-71
2022/12/30 07:09:23;;;;;;;12.63;3.88;;;6.70;99.90;;;;;;4999873;28;20022;-71
2022/12/30 07:11:48;;;;;;;12.43;3.60;;;6.80;99.90;;;;;;5007093;28;20038;-72
2022/12/30 07:14:14;;;;;;;16.38;3.53;;;6.80;99.90;;;;;;5002634;28;20030;-72
2022/12/30 07:16:40;;;;;;;11.10;3.47;;;6.80;99.90;;;;;;5006847;28;20065;-72
2022/12/30 07:19:05;;;;;;;17.38;3.80;;;6.80;99.90;;;;;;5004930;28;20124;-72
2022/12/30 07:21:32;;;;;;;13.02;3.10;;;6.80;99.90;;;;;;4986042;28;20045;-72
2022/12/30 07:23:58;;;;;;;12.30;3.60;;;6.80;99.90;;;;;;5003778;28;20109;-72
2022/12/30 07:26:24;;;;;;;13.30;3.05;;;6.90;99.90;;;;;;4988597;28;20070;-72
2022/12/30 07:28:53;;;;;;;10.98;3.30;;;6.90;99.90;;;;;;5001232;28;20037;-72
2022/12/30 07:31:19;;;;;;;13.98;3.40;;;6.90;99.90;;;;;;5003782;28;20536;-72
2022/12/30 07:33:44;;;;;;;14.30;3.72;;;7.00;99.90;;;;;;5001993;28;20027;-72
2022/12/30 07:36:10;;;;;;;15.35;3.25;;;7.00;99.90;;;;;;4997646;28;20050;-72
2022/12/30 07:38:35;;;;;;;16.95;3.58;;;7.00;99.90;;;;;;5004159;28;20501;-72
2022/12/30 07:41:01;;;;;;;11.60;3.60;;;7.00;99.90;;;;;;5007299;28;20053;-72
2022/12/30 07:43:27;;;;;;;10.05;3.25;;;7.00;99.90;;;;;;5003922;28;20544;-72
2022/12/30 07:45:52;;;;;;;16.52;4.45;;;7.10;99.90;;;;;;5006887;28;20042;-72
2022/12/30 07:48:18;;;;;;;15.13;3.75;;;7.10;99.90;;;;;;5004391;28;20018;-71
2022/12/30 07:50:43;;;;;;;12.57;3.60;;;7.00;99.90;;;;;;5004035;28;20113;-72
2022/12/30 07:53:09;;;;;;;17.33;3.20;;;7.00;99.90;;;;;;5008241;28;20026;-72
2022/12/30 07:55:39;;;;;;;11.88;3.67;;;7.10;99.90;;;;;;5003785;28;20026;-72
2022/12/30 07:58:05;;;;;;;16.88;4.63;;;7.10;99.90;;;;;;5007033;28;20026;-72
2022/12/30 08:00:31;;;;;;;18.70;6.53;;;7.20;99.90;;;;;;4998707;28;20042;-72
2022/12/30 08:02:57;;;;;;;12.93;4.05;;;7.20;99.90;;;;;;5003809;28;20040;-72
2022/12/30 08:05:22;;;;;;;16.98;4.55;;;7.30;99.90;;;;;;5011410;28;20470;-72
2022/12/30 08:07:51;;;;;;;15.60;3.78;;;7.40;99.90;;;;;;5007995;28;20030;-71
2022/12/30 08:10:18;;;;;;;13.68;5.07;;;7.30;99.90;;;;;;5007719;28;20485;-72
2022/12/30 08:12:45;;;;;;;8.82;3.70;;;7.30;99.90;;;;;;5000033;28;20079;-71
2022/12/30 08:15:11;;;;;;;12.85;5.80;;;7.30;99.90;;;;;;4983375;28;20452;-72
2022/12/30 08:17:37;;;;;;;15.73;4.75;;;7.40;99.90;;;;;;4987480;28;20022;-73
2022/12/30 08:20:03;;;;;;;11.68;4.00;;;7.40;99.90;;;;;;5004771;28;20370;-73
2022/12/30 08:22:29;;;;;;;10.55;3.20;;;7.40;99.90;;;;;;5003493;28;20027;-73
2022/12/30 08:24:55;;;;;;;9.23;2.88;;;7.50;99.90;;;;;;5007849;28;20018;-73
2022/12/30 08:27:21;;;;;;;10.02;3.42;;;7.50;99.90;;;;;;4988993;28;20034;-72
2022/12/30 08:29:47;;;;;;;8.15;3.00;;;7.60;99.90;;;;;;5005757;28;20018;-72
2022/12/30 08:32:12;;;;;;;8.43;2.95;;;7.60;99.90;;;;;;4998975;28;20045;-72
2022/12/30 08:34:38;;;;;;;11.75;3.22;;;7.60;99.90;;;;;;5007592;28;20028;-72
2022/12/30 08:37:03;;;;;;;12.05;3.35;;;7.70;99.90;;;;;;4999293;28;20045;-72
2022/12/30 08:39:29;;;;;;;7.63;2.47;;;7.70;99.90;;;;;;5004541;28;20500;-73
2022/12/30 08:41:55;;;;;;;9.23;2.28;;;7.70;99.90;;;;;;5001420;28;20027;-73
2022/12/30 08:44:20;;;;;;;7.97;1.70;;;7.70;99.90;;;;;;5000727;28;20616;-73
2022/12/30 08:46:46;;;;;;;11.35;2.65;;;7.80;99.90;;;;;;5002986;28;20022;-73
2022/12/30 08:49:12;;;;;;;6.75;2.88;;;7.80;99.90;;;;;;4983887;28;20505;-73
2022/12/30 08:51:38;;;;;;;4.80;2.55;;;7.90;99.90;;;;;;5003538;28;20049;-73
2022/12/30 08:54:04;;;;;;;11.18;2.60;;;7.90;99.90;;;;;;4999320;28;20381;-73
2022/12/30 08:56:32;;;;;;;6.53;2.33;;;7.90;99.90;;;;;;5005334;28;20026;-72
2022/12/30 08:58:59;;;;;;;7.18;2.20;;;8.00;99.90;;;;;;5000749;28;20042;-73
2022/12/30 09:01:33;;;;;;;6.25;1.80;;;8.00;99.90;;;;;;4997897;28;20473;-73
2022/12/30 09:03:59;;;;;;;6.82;1.80;;;8.00;99.90;;;;;;4993755;28;20026;-73
2022/12/30 09:06:27;;;;;;;7.55;1.75;;;8.10;99.90;;;;;;5002156;28;20018;-73
2022/12/30 09:08:54;;;;;;;7.45;2.38;;;8.20;99.90;;;;;;5002412;28;20121;-73
2022/12/30 09:11:24;;;;;;;6.75;1.90;;;8.20;99.90;;;;;;5004229;28;20030;-73
2022/12/30 09:13:50;;;;;;;5.15;1.88;;;8.20;99.90;;;;;;5003641;28;20390;-73
2022/12/30 09:16:20;;;;;;;5.10;1.67;;;8.30;99.90;;;;;;4982554;28;20739;-73
2022/12/30 09:18:46;;;;;;;8.68;2.33;;;8.30;99.90;;;;;;4984845;28;20122;-73
2022/12/30 09:21:12;;;;;;;4.13;1.67;;;8.30;99.90;;;;;;5001260;28;20097;-73
2022/12/30 09:23:38;;;;;;;6.68;1.60;;;8.40;99.90;;;;;;4998699;28;20026;-73
2022/12/30 09:26:05;;;;;;;4.93;1.80;;;8.40;99.90;;;;;;4987383;28;20034;-73
2022/12/30 09:28:31;;;;;;;8.23;1.95;;;8.50;99.90;;;;;;4999292;28;20030;-73
2022/12/30 09:30:57;;;;;;;5.78;1.95;;;8.60;99.90;;;;;;5005694;28;20033;-73
2022/12/30 09:33:23;;;;;;;5.00;1.52;;;8.50;99.90;;;;;;5009097;28;20018;-73
2022/12/30 09:35:48;;;;;;;11.35;2.42;;;8.60;99.90;;;;;;4994393;28;20548;-73
2022/12/30 09:38:14;;;;;;;9.27;2.17;;;8.60;99.90;;;;;;5008192;28;20026;-73
2022/12/30 09:41:02;;;;;;;5.65;1.67;;;8.70;99.90;;;;;;5009112;28;20073;-73
2022/12/30 09:43:31;;;;;;;8.45;2.28;;;8.70;99.90;;;;;;4998258;28;20037;-73
2022/12/30 09:46:22;;;;;;;8.40;2.13;;;8.70;99.90;;;;;;5024514;28;20079;-73
2022/12/30 09:49:34;;;;;;;5.25;1.50;;;8.80;99.90;;;;;;5023500;28;20485;-73
2022/12/30 09:52:28;;;;;;;6.47;1.55;;;8.80;99.90;;;;;;4989999;28;20128;-73
2022/12/30 09:55:02;;;;;;;9.05;2.17;;;8.90;99.90;;;;;;5016114;28;20037;-74
2022/12/30 09:57:32;;;;;;;8.50;1.98;;;8.90;99.90;;;;;;5012012;28;20014;-72
2022/12/30 10:00:29;;;;;;;7.40;1.73;;;8.90;99.90;;;;;;5000029;28;20524;-73
2022/12/30 10:03:05;;;;;;;5.50;2.00;;;9.00;99.90;;;;;;4991236;28;20490;-73
2022/12/30 10:06:09;;;;;;;6.40;1.98;;;9.10;99.90;;;;;;5009037;28;20120;-74
2022/12/30 10:08:49;;;;;;;11.48;2.40;;;9.10;99.90;;;;;;4983668;28;20065;-73
2022/12/30 10:11:29;;;;;;;10.68;2.25;;;9.20;99.90;;;;;;5007516;28;20033;-74
2022/12/30 10:14:06;;;;;;;8.95;3.20;;;9.20;99.90;;;;;;4991045;28;20087;-73
2022/12/30 10:16:55;;;;;;;8.50;3.00;;;9.30;99.90;;;;;;5007344;28;20037;-73
2022/12/30 10:19:48;;;;;;;9.82;2.70;;;9.20;99.90;;;;;;5000694;28;20145;-73
2022/12/30 10:22:51;;;;;;;10.30;2.42;;;9.30;99.90;;;;;;5006153;28;20473;-73
2022/12/30 10:25:27;;;;;;;9.85;1.77;;;9.30;99.90;;;;;;4894536;29;20314;-73
2022/12/30 10:27:55;;;;;;;7.25;1.48;;;9.40;99.90;;;;;;4989177;28;20128;-73
2022/12/30 10:30:34;;;;;;;9.43;1.73;;;9.30;99.90;;;;;;5008714;28;20489;-73
2022/12/30 10:33:04;;;;;;;5.53;1.60;;;9.40;99.90;;;;;;5002919;28;20106;-73
2022/12/30 10:35:32;;;;;;;10.30;1.90;;;9.30;99.90;;;;;;5004318;28;20084;-73
2022/12/30 10:38:09;;;;;;;7.07;1.65;;;9.40;99.90;;;;;;4996850;28;20125;-73
2022/12/30 10:40:44;;;;;;;5.28;1.63;;;9.50;99.90;;;;;;4974786;28;20033;-74
2022/12/30 10:43:33;;;;;;;4.95;1.60;;;9.50;99.90;;;;;;4992668;28;20056;-73
2022/12/30 10:46:28;;;;;;;7.93;1.88;;;9.50;99.90;;;;;;4987190;28;20068;-77
2022/12/30 10:49:29;;;;;;;7.93;2.28;;;9.60;99.90;;;;;;4983520;28;20053;-74
2022/12/30 10:51:55;;;;;;;10.85;2.50;;;9.50;99.90;;;;;;5010558;28;20036;-74
2022/12/30 10:54:21;;;;;;;10.23;2.25;;;9.60;99.90;;;;;;5010408;28;20029;-74
2022/12/30 10:56:47;;;;;;;6.93;1.52;;;9.70;99.90;;;;;;5014051;28;20018;-73
2022/12/30 10:59:17;;;;;;;13.43;2.30;;;9.60;99.90;;;;;;5007526;28;20073;-74
2022/12/30 11:01:46;;;;;;;10.88;1.85;;;9.70;99.90;;;;;;5008756;28;20030;-73
2022/12/30 11:04:31;;;;;;;7.97;2.13;;;9.70;99.90;;;;;;4994534;28;20025;-73
2022/12/30 11:06:59;;;;;;;9.73;1.90;;;9.70;99.90;;;;;;5015527;28;20079;-74
2022/12/30 11:09:25;;;;;;;6.65;1.92;;;9.70;99.90;;;;;;5012755;28;20473;-73
2022/12/30 11:15:27;;;;;;;12.05;2.78;;;9.70;99.90;;;;;;5014208;28;20120;-73
2022/12/30 11:17:54;;;;;;;8.15;1.88;;;9.70;99.90;;;;;;5014057;28;20032;-73
2022/12/30 11:20:34;;;;;;;16.05;2.30;;;9.70;99.90;;;;;;5012411;28;20037;-74
2022/12/30 11:23:03;;;;;;;9.90;1.67;;;9.70;99.90;;;;;;5010575;28;20018;-73
2022/12/30 11:25:44;;;;;;;9.52;1.65;;;9.80;99.90;;;;;;5012088;28;20469;-73
2022/12/30 11:28:19;;;;;;;7.55;1.92;;;9.70;99.90;;;;;;5012558;28;20025;-73
2022/12/30 11:30:51;;;;;;;7.47;2.22;;;9.80;99.90;;;;;;4995096;28;20026;-73
2022/12/30 11:33:22;;;;;;;7.47;2.70;;;9.80;99.90;;;;;;5011002;28;20049;-74
2022/12/30 11:35:49;;;;;;;8.88;2.13;;;9.90;99.90;;;;;;4990443;28;20025;-73
2022/12/30 11:38:37;;;;;;;10.38;2.28;;;9.90;99.90;;;;;;4996369;28;20097;-74
2022/12/30 11:41:18;;;;;;;6.95;1.85;;;9.90;99.90;;;;;;5012975;28;20047;-74
2022/12/30 11:43:59;;;;;;;10.90;2.17;;;9.90;99.90;;;;;;5013361;28;20048;-73
2022/12/30 11:46:39;;;;;;;8.77;2.38;;;10.00;99.90;;;;;;5011192;28;20085;-73
2022/12/30 11:49:28;;;;;;;8.45;2.85;;;10.00;99.90;;;;;;5008577;28;20128;-72
2022/12/30 11:51:57;;;;;;;9.27;2.13;;;10.00;99.90;;;;;;5003465;28;20104;-71
2022/12/30 11:54:31;;;;;;;11.38;2.63;;;10.00;99.90;;;;;;5005743;28;20022;-73
2022/12/30 11:56:57;;;;;;;6.47;1.83;;;10.10;99.90;;;;;;5009022;28;20022;-71
2022/12/30 11:59:32;;;;;;;11.50;2.33;;;10.00;99.90;;;;;;5010572;28;20052;-71
2022/12/30 12:02:02;;;;;;;5.70;2.08;;;10.10;99.90;;;;;;5010597;28;20029;-72
2022/12/30 12:04:29;;;;;;;11.85;2.42;;;10.10;99.90;;;;;;5012702;28;20540;-72
2022/12/30 12:06:56;;;;;;;6.38;2.20;;;10.10;99.90;;;;;;5011834;28;20428;-72
2022/12/30 12:09:36;;;;;;;7.65;2.33;;;10.20;99.90;;;;;;5011072;28;20049;-72
2022/12/30 12:12:14;;;;;;;11.18;2.63;;;10.10;99.90;;;;;;5008907;28;20091;-72
2022/12/30 12:15:08;;;;;;;10.80;1.90;;;10.20;99.90;;;;;;4992581;28;20598;-72
2022/12/30 12:18:11;;;;;;;9.63;1.85;;;10.20;99.90;;;;;;5004938;28;20493;-71
2022/12/30 12:20:46;;;;;;;7.50;1.98;;;10.20;99.90;;;;;;4999234;28;20080;-72
2022/12/30 12:23:17;;;;;;;12.10;2.45;;;10.20;99.90;;;;;;5006109;28;20155;-72
2022/12/30 12:25:58;;;;;;;7.47;1.30;;;10.20;99.90;;;;;;4993922;28;20434;-72
2022/12/30 12:28:24;;;;;;;7.18;1.88;;;10.20;99.90;;;;;;5005243;28;20030;-72
2022/12/30 12:31:21;;;;;;;10.77;1.67;;;10.20;99.90;;;;;;4993110;28;20022;-72
2022/12/30 12:33:57;;;;;;;12.82;2.33;;;10.20;99.90;;;;;;5011096;28;20063;-72
2022/12/30 12:36:56;;;;;;;5.15;1.52;;;10.10;99.90;;;;;;4989847;28;20576;-72
2022/12/30 12:39:59;;;;;;;5.18;1.23;;;10.00;99.90;;;;;;5015542;28;20033;-71
2022/12/30 12:42:41;;;;;;;6.55;2.25;;;10.10;99.90;;;;;;5004643;28;20060;-72
2022/12/30 12:45:28;;;;;;;4.03;1.58;;;10.10;99.90;;;;;;5012132;28;20065;-73
2022/12/30 12:47:54;;;;;;;7.07;1.75;;;10.10;99.90;;;;;;5011782;28;20038;-71
2022/12/30 12:50:38;;;;;;;4.65;1.40;;;10.10;99.90;;;;;;4987627;28;20081;-72
2022/12/30 12:53:36;;;;;;;6.72;1.70;;;10.00;99.90;;;;;;4990772;28;20022;-72
2022/12/30 12:56:16;;;;;;;6.38;1.30;;;10.00;99.90;;;;;;5011388;28;20550;-71
2022/12/30 12:59:06;;;;;;;5.95;1.83;;;9.90;99.90;;;;;;4990969;28;20157;-71
2022/12/30 13:01:48;;;;;;;4.85;1.85;;;10.00;99.90;;;;;;5010487;28;20481;-71
2022/12/30 13:04:39;;;;;;;5.32;1.30;;;10.00;99.90;;;;;;5015463;28;20084;-72
2022/12/30 13:07:27;;;;;;;6.55;1.50;;;9.90;99.90;;;;;;5013350;28;20026;-71
2022/12/30 13:10:18;;;;;;;8.65;2.30;;;9.90;99.90;;;;;;5027211;28;20464;-72
2022/12/30 13:13:01;;;;;;;6.72;2.00;;;9.90;99.90;;;;;;5011922;28;20108;-71
2022/12/30 13:15:39;;;;;;;3.70;1.73;;;9.90;99.90;;;;;;5018251;28;20375;-73
2022/12/30 13:18:11;;;;;;;2.90;1.55;;;10.00;99.90;;;;;;5012386;28;20025;-72
2022/12/30 13:20:45;;;;;;;3.15;1.20;;;9.90;99.90;;;;;;5015694;28;20038;-73
2022/12/30 13:23:14;;;;;;;5.30;1.20;;;9.80;99.90;;;;;;5009374;28;20024;-72
2022/12/30 13:25:47;;;;;;;6.90;1.38;;;9.90;99.90;;;;;;5010854;28;20743;-71
2022/12/30 13:28:25;;;;;;;7.18;1.33;;;9.90;99.90;;;;;;5012836;28;20013;-72
2022/12/30 13:31:16;;;;;;;6.05;1.45;;;9.90;99.90;;;;;;5014811;28;20022;-72
2022/12/30 13:34:02;;;;;;;6.47;1.38;;;9.80;99.90;;;;;;4998130;28;20034;-71
2022/12/30 13:36:42;;;;;;;6.85;1.23;;;9.90;99.90;;;;;;5003936;28;20030;-71
2022/12/30 13:39:27;;;;;;;6.40;1.98;;;9.90;99.90;;;;;;5009961;28;20037;-72
2022/12/30 13:42:26;;;;;;;4.88;1.17;;;9.90;99.90;;;;;;5005297;28;20401;-72
2022/12/30 13:44:53;;;;;;;4.05;1.10;;;9.90;99.90;;;;;;5011885;28;20045;-72
2022/12/30 13:47:39;;;;;;;7.25;1.70;;;9.90;99.90;;;;;;4999960;28;20168;-73
2022/12/30 13:50:17;;;;;;;2.65;1.25;;;10.00;99.90;;;;;;4990774;28;20036;-72
2022/12/30 13:52:48;;;;;;;3.30;1.40;;;10.00;99.90;;;;;;4993521;28;20026;-73
2022/12/30 13:55:21;;;;;;;4.50;1.40;;;10.00;99.90;;;;;;5013179;28;20022;-72
2022/12/30 13:57:56;;;;;;;3.67;1.70;;;10.00;99.90;;;;;;5013003;28;20065;-72
2022/12/30 14:00:38;;;;;;;7.88;1.70;;;9.90;99.90;;;;;;5016312;28;20485;-74
2022/12/30 14:03:10;;;;;;;4.35;1.63;;;9.90;99.90;;;;;;5011810;28;20097;-72
2022/12/30 14:05:39;;;;;;;3.80;1.67;;;9.90;99.90;;;;;;5014546;28;20021;-72